sensor_id;sensor_type;location;lat;lon;timestamp;pressure;altitude;pressure_sealevel;temperature;humidity
31285;BME280;56605;51.516;6.742;2022-09-17T18:22:08;101233.97;;;12.26;89.48
31285;BME280;56605;51.516;6.742;2022-09-17T18:24:34;101231.28;;;12.17;88.82
31285;BME280;56605;51.516;6.742;2022-09-17T18:26:59;101233.81;;;12.27;89.17
31285;BME280;56605;51.516;6.742;2022-09-17T18:29:24;101231.28;;;12.26;89.90
31285;BME280;56605;51.516;6.742;2022-09-17T18:31:49;101231.09;;;12.19;91.40
31285;BME280;56605;51.516;6.742;2022-09-17T18:34:15;101235.47;;;12.28;88.47
31285;BME280;56605;51.516;6.742;2022-09-17T18:36:41;101234.81;;;12.35;88.27
31285;BME280;56605;51.516;6.742;2022-09-17T18:39:11;101237.47;;;12.43;88.82
31285;BME280;56605;51.516;6.742;2022-09-17T18:41:38;101236.63;;;12.42;86.78
31285;BME280;56605;51.516;6.742;2022-09-17T18:44:05;101242.66;;;12.45;87.71
31285;BME280;56605;51.516;6.742;2022-09-17T18:46:31;101236.78;;;12.41;86.79
31285;BME280;56605;51.516;6.742;2022-09-17T18:48:57;101236.78;;;12.41;87.19
31285;BME280;56605;51.516;6.742;2022-09-17T18:51:24;101242.34;;;12.48;86.86
31285;BME280;56605;51.516;6.742;2022-09-17T18:53:51;101235.97;;;12.40;87.52
31285;BME280;56605;51.516;6.742;2022-09-17T18:56:21;101240.66;;;12.47;86.20
31285;BME280;56605;51.516;6.742;2022-09-17T18:58:48;101245.16;;;12.38;88.05
31285;BME280;56605;51.516;6.742;2022-09-17T19:01:15;101248.69;;;12.30;87.93
31285;BME280;56605;51.516;6.742;2022-09-17T19:03:40;101260.91;;;12.33;88.42
31285;BME280;56605;51.516;6.742;2022-09-17T19:06:10;101267.56;;;12.12;89.63
31285;BME280;56605;51.516;6.742;2022-09-17T19:08:36;101266.56;;;12.13;91.09
31285;BME280;56605;51.516;6.742;2022-09-17T19:11:01;101264.06;;;12.20;91.84
31285;BME280;56605;51.516;6.742;2022-09-17T19:13:33;101261.41;;;12.20;92.14
31285;BME280;56605;51.516;6.742;2022-09-17T19:15:58;101267.59;;;12.28;89.25
31285;BME280;56605;51.516;6.742;2022-09-17T19:18:25;101265.56;;;12.30;89.59
31285;BME280;56605;51.516;6.742;2022-09-17T19:20:50;101263.25;;;12.36;90.76
31285;BME280;56605;51.516;6.742;2022-09-17T19:23:15;101266.94;;;12.35;90.25
31285;BME280;56605;51.516;6.742;2022-09-17T19:25:41;101258.22;;;12.24;89.22
31285;BME280;56605;51.516;6.742;2022-09-17T19:28:06;101268.78;;;12.26;88.52
31285;BME280;56605;51.516;6.742;2022-09-17T19:30:32;101273.09;;;12.18;88.62
31285;BME280;56605;51.516;6.742;2022-09-17T19:32:58;101289.50;;;12.15;89.57
31285;BME280;56605;51.516;6.742;2022-09-17T19:35:24;101289.59;;;11.97;91.92
31285;BME280;56605;51.516;6.742;2022-09-17T19:37:50;101289.53;;;11.80;93.86
31285;BME280;56605;51.516;6.742;2022-09-17T19:40:17;101285.50;;;11.68;94.67
31285;BME280;56605;51.516;6.742;2022-09-17T19:42:43;101296.78;;;11.53;97.34
31285;BME280;56605;51.516;6.742;2022-09-17T19:45:08;101298.72;;;11.43;100.00
31285;BME280;56605;51.516;6.742;2022-09-17T19:47:34;101297.03;;;11.34;99.94
31285;BME280;56605;51.516;6.742;2022-09-17T19:49:59;101301.34;;;11.26;99.85
31285;BME280;56605;51.516;6.742;2022-09-17T19:52:24;101292.19;;;11.37;99.77
31285;BME280;56605;51.516;6.742;2022-09-17T19:54:50;101299.91;;;11.40;97.28
31285;BME280;56605;51.516;6.742;2022-09-17T19:57:15;101302.94;;;11.46;96.61
31285;BME280;56605;51.516;6.742;2022-09-17T19:59:40;101294.94;;;11.46;96.55
31285;BME280;56605;51.516;6.742;2022-09-17T20:02:06;101287.25;;;11.51;97.02
31285;BME280;56605;51.516;6.742;2022-09-17T20:04:31;101305.31;;;11.49;98.23
31285;BME280;56605;51.516;6.742;2022-09-17T20:06:57;101300.63;;;11.51;98.34
31285;BME280;56605;51.516;6.742;2022-09-17T20:09:27;101299.97;;;11.49;98.85
31285;BME280;56605;51.516;6.742;2022-09-17T20:11:53;101288.88;;;11.44;100.00
31285;BME280;56605;51.516;6.742;2022-09-17T20:14:18;101285.34;;;11.35;100.00
31285;BME280;56605;51.516;6.742;2022-09-17T20:16:44;101283.28;;;11.28;100.00
31285;BME280;56605;51.516;6.742;2022-09-17T20:19:13;101294.16;;;11.27;99.07
31285;BME280;56605;51.516;6.742;2022-09-17T20:21:39;101302.00;;;11.28;99.84
31285;BME280;56605;51.516;6.742;2022-09-17T20:24:05;101294.38;;;11.34;100.00
31285;BME280;56605;51.516;6.742;2022-09-17T20:26:30;101301.59;;;11.41;99.60
31285;BME280;56605;51.516;6.742;2022-09-17T20:28:56;101298.91;;;11.41;100.00
31285;BME280;56605;51.516;6.742;2022-09-17T20:31:23;101304.38;;;11.32;99.91
31285;BME280;56605;51.516;6.742;2022-09-17T20:33:53;101308.19;;;11.29;100.00
31285;BME280;56605;51.516;6.742;2022-09-17T20:36:21;101307.03;;;11.32;100.00
31285;BME280;56605;51.516;6.742;2022-09-17T20:38:47;101305.38;;;11.31;100.00
31285;BME280;56605;51.516;6.742;2022-09-17T20:41:13;101309.56;;;11.33;100.00
31285;BME280;56605;51.516;6.742;2022-09-17T20:43:41;101315.91;;;11.32;100.00
31285;BME280;56605;51.516;6.742;2022-09-17T20:46:08;101304.94;;;11.17;100.00
31285;BME280;56605;51.516;6.742;2022-09-17T20:48:34;101314.94;;;11.15;100.00
31285;BME280;56605;51.516;6.742;2022-09-17T20:51:04;101310.47;;;11.15;100.00
31285;BME280;56605;51.516;6.742;2022-09-17T20:53:31;101313.09;;;11.07;100.00
31285;BME280;56605;51.516;6.742;2022-09-17T20:56:03;101311.03;;;11.01;100.00
31285;BME280;56605;51.516;6.742;2022-09-17T20:58:30;101319.31;;;10.89;100.00
31285;BME280;56605;51.516;6.742;2022-09-17T21:01:17;101314.03;;;10.80;100.00
31285;BME280;56605;51.516;6.742;2022-09-17T21:03:45;101324.38;;;10.74;100.00
31285;BME280;56605;51.516;6.742;2022-09-17T21:06:20;101321.16;;;10.71;100.00
31285;BME280;56605;51.516;6.742;2022-09-17T21:08:46;101322.44;;;10.67;100.00
31285;BME280;56605;51.516;6.742;2022-09-17T21:11:12;101310.72;;;10.59;100.00
31285;BME280;56605;51.516;6.742;2022-09-17T21:13:37;101313.31;;;10.51;100.00
31285;BME280;56605;51.516;6.742;2022-09-17T21:16:03;101314.63;;;10.47;100.00
31285;BME280;56605;51.516;6.742;2022-09-17T21:18:29;101308.00;;;10.41;100.00
31285;BME280;56605;51.516;6.742;2022-09-17T21:20:54;101322.06;;;10.43;100.00
31285;BME280;56605;51.516;6.742;2022-09-17T21:23:27;101323.59;;;10.46;100.00
31285;BME280;56605;51.516;6.742;2022-09-17T21:26:01;101316.00;;;10.51;100.00
31285;BME280;56605;51.516;6.742;2022-09-17T21:28:28;101314.13;;;10.51;100.00
31285;BME280;56605;51.516;6.742;2022-09-17T21:31:00;101313.16;;;10.52;100.00
31285;BME280;56605;51.516;6.742;2022-09-17T21:33:26;101327.25;;;10.45;100.00
31285;BME280;56605;51.516;6.742;2022-09-17T21:35:51;101316.72;;;10.43;100.00
31285;BME280;56605;51.516;6.742;2022-09-17T21:38:17;101309.72;;;10.42;100.00
31285;BME280;56605;51.516;6.742;2022-09-17T21:40:54;101313.34;;;10.41;100.00
31285;BME280;56605;51.516;6.742;2022-09-17T21:43:19;101321.47;;;10.49;100.00
31285;BME280;56605;51.516;6.742;2022-09-17T21:45:44;101318.25;;;10.46;100.00
31285;BME280;56605;51.516;6.742;2022-09-17T21:48:09;101310.97;;;10.48;100.00
31285;BME280;56605;51.516;6.742;2022-09-17T21:50:35;101318.22;;;10.56;100.00
31285;BME280;56605;51.516;6.742;2022-09-17T21:53:00;101314.69;;;10.55;100.00
31285;BME280;56605;51.516;6.742;2022-09-17T21:55:25;101322.84;;;10.53;100.00
31285;BME280;56605;51.516;6.742;2022-09-17T21:57:51;101328.88;;;10.56;100.00
31285;BME280;56605;51.516;6.742;2022-09-17T22:00:16;101317.22;;;10.57;100.00
31285;BME280;56605;51.516;6.742;2022-09-17T22:02:43;101328.94;;;10.64;100.00
31285;BME280;56605;51.516;6.742;2022-09-17T22:05:09;101322.16;;;10.70;100.00
31285;BME280;56605;51.516;6.742;2022-09-17T22:07:34;101324.75;;;10.61;100.00
31285;BME280;56605;51.516;6.742;2022-09-17T22:10:00;101323.22;;;10.59;100.00
31285;BME280;56605;51.516;6.742;2022-09-17T22:12:25;101327.59;;;10.60;100.00
31285;BME280;56605;51.516;6.742;2022-09-17T22:14:51;101323.69;;;10.54;100.00
31285;BME280;56605;51.516;6.742;2022-09-17T22:17:16;101326.03;;;10.39;100.00
31285;BME280;56605;51.516;6.742;2022-09-17T22:19:42;101323.94;;;10.33;100.00
31285;BME280;56605;51.516;6.742;2022-09-17T22:22:07;101322.34;;;10.22;100.00
31285;BME280;56605;51.516;6.742;2022-09-17T22:24:32;101332.63;;;10.17;100.00
31285;BME280;56605;51.516;6.742;2022-09-17T22:26:58;101326.44;;;10.16;100.00
31285;BME280;56605;51.516;6.742;2022-09-17T22:29:24;101327.44;;;10.15;100.00
31285;BME280;56605;51.516;6.742;2022-09-17T22:31:49;101325.94;;;10.12;100.00
31285;BME280;56605;51.516;6.742;2022-09-17T22:34:17;101325.81;;;10.04;100.00
31285;BME280;56605;51.516;6.742;2022-09-17T22:36:43;101330.34;;;10.04;100.00
31285;BME280;56605;51.516;6.742;2022-09-17T22:39:09;101326.53;;;10.06;100.00
31285;BME280;56605;51.516;6.742;2022-09-17T22:41:36;101332.56;;;10.08;100.00
31285;BME280;56605;51.516;6.742;2022-09-17T22:44:10;101332.34;;;10.20;100.00
31285;BME280;56605;51.516;6.742;2022-09-17T22:46:37;101330.03;;;10.25;100.00
31285;BME280;56605;51.516;6.742;2022-09-17T22:49:04;101338.44;;;10.30;100.00
31285;BME280;56605;51.516;6.742;2022-09-17T22:51:30;101337.31;;;10.33;100.00
31285;BME280;56605;51.516;6.742;2022-09-17T22:53:56;101332.50;;;10.36;100.00
31285;BME280;56605;51.516;6.742;2022-09-17T22:56:22;101326.47;;;10.34;100.00
31285;BME280;56605;51.516;6.742;2022-09-17T22:58:49;101324.50;;;10.36;100.00
31285;BME280;56605;51.516;6.742;2022-09-17T23:01:17;101308.56;;;10.45;100.00
31285;BME280;56605;51.516;6.742;2022-09-17T23:03:44;101317.88;;;10.40;100.00
31285;BME280;56605;51.516;6.742;2022-09-17T23:06:13;101317.72;;;10.42;100.00
31285;BME280;56605;51.516;6.742;2022-09-17T23:08:39;101311.63;;;10.50;100.00
31285;BME280;56605;51.516;6.742;2022-09-17T23:11:07;101310.81;;;10.49;100.00
31285;BME280;56605;51.516;6.742;2022-09-17T23:13:33;101307.72;;;10.44;100.00
31285;BME280;56605;51.516;6.742;2022-09-17T23:16:06;101309.44;;;10.45;100.00
31285;BME280;56605;51.516;6.742;2022-09-17T23:18:33;101315.13;;;10.50;100.00
31285;BME280;56605;51.516;6.742;2022-09-17T23:21:02;101305.63;;;10.48;100.00
31285;BME280;56605;51.516;6.742;2022-09-17T23:23:27;101306.63;;;10.47;100.00
31285;BME280;56605;51.516;6.742;2022-09-17T23:25:54;101301.56;;;10.44;100.00
31285;BME280;56605;51.516;6.742;2022-09-17T23:28:20;101302.94;;;10.48;100.00
31285;BME280;56605;51.516;6.742;2022-09-17T23:30:45;101308.28;;;10.48;100.00
31285;BME280;56605;51.516;6.742;2022-09-17T23:33:11;101305.69;;;10.56;100.00
31285;BME280;56605;51.516;6.742;2022-09-17T23:35:37;101302.00;;;10.57;100.00
31285;BME280;56605;51.516;6.742;2022-09-17T23:38:03;101298.81;;;10.53;100.00
31285;BME280;56605;51.516;6.742;2022-09-17T23:40:28;101295.59;;;10.50;100.00
31285;BME280;56605;51.516;6.742;2022-09-17T23:42:54;101293.84;;;10.40;100.00
31285;BME280;56605;51.516;6.742;2022-09-17T23:45:20;101304.91;;;10.46;100.00
31285;BME280;56605;51.516;6.742;2022-09-17T23:47:45;101305.19;;;10.43;100.00
31285;BME280;56605;51.516;6.742;2022-09-17T23:50:10;101301.56;;;10.44;100.00
31285;BME280;56605;51.516;6.742;2022-09-17T23:52:36;101306.88;;;10.44;100.00
31285;BME280;56605;51.516;6.742;2022-09-17T23:55:01;101306.19;;;10.42;100.00
31285;BME280;56605;51.516;6.742;2022-09-17T23:57:28;101310.53;;;10.43;100.00
31285;BME280;56605;51.516;6.742;2022-09-17T23:59:54;101307.34;;;10.39;100.00
